Time;durP1;ratioP1;P1;durP2;ratioP2;P2;SDS_P1;SDS_P2;PMS_P1;PMS_P2;Temp;Humidity;BMP_temperature;BMP_pressure;BME280_temperature;BME280_humidity;BME280_pressure;Samples;Min_cycle;Max_cycle;Signal;HPM_P1;HPM_P2
2022/08/01 00:01:25;;;;;;;1.60;1.02;;;22.10;62.50;;;;;;5016180;28;20053;-75
2022/08/01 00:03:51;;;;;;;1.77;1.20;;;22.20;66.40;;;;;;5034120;28;20124;-75
2022/08/01 00:06:18;;;;;;;1.27;1.10;;;22.10;62.50;;;;;;5016061;28;20056;-74
2022/08/01 00:08:45;;;;;;;1.50;1.08;;;21.80;66.50;;;;;;5032829;28;20050;-75
2022/08/01 00:11:13;;;;;;;1.17;1.00;;;22.10;62.50;;;;;;5016149;28;20137;-75
2022/08/01 00:13:40;;;;;;;2.28;1.17;;;22.30;62.60;;;;;;5016515;28;20054;-74
2022/08/01 00:16:07;;;;;;;1.83;1.10;;;21.80;65.90;;;;;;5033846;28;20045;-75
2022/08/01 00:18:34;;;;;;;1.20;1.02;;;21.10;66.40;;;;;;5016240;28;20049;-75
2022/08/01 00:21:01;;;;;;;1.23;1.00;;;22.10;62.50;;;;;;5015869;28;20092;-74
2022/08/01 00:23:27;;;;;;;1.85;1.08;;;22.10;62.50;;;;;;5015743;28;20053;-73
2022/08/01 00:25:54;;;;;;;1.38;0.98;;;21.10;65.50;;;;;;5032858;28;20046;-73
2022/08/01 00:28:22;;;;;;;1.45;1.10;;;22.10;62.50;;;;;;5016033;28;20524;-74
2022/08/01 00:30:49;;;;;;;1.38;1.10;;;22.10;62.50;;;;;;5015755;28;20091;-74
2022/08/01 00:33:15;;;;;;;1.58;0.90;;;22.10;62.50;;;;;;5015797;28;20129;-73
2022/08/01 00:35:42;;;;;;;1.38;1.10;;;22.20;66.60;;;;;;5015662;28;20049;-73
2022/08/01 00:38:09;;;;;;;1.05;0.95;;;21.90;66.60;;;;;;5015813;28;20417;-74
2022/08/01 00:40:35;;;;;;;1.30;1.00;;;21.90;65.00;;;;;;5015428;28;20057;-73
2022/08/01 00:43:02;;;;;;;1.50;1.20;;;22.00;66.70;;;;;;5015056;28;20054;-75
2022/08/01 00:45:30;;;;;;;1.77;1.00;;;22.10;62.50;;;;;;5015330;28;20126;-75
2022/08/01 00:47:57;;;;;;;1.70;1.20;;;22.10;62.50;;;;;;5015795;28;20132;-75
2022/08/01 00:50:24;;;;;;;1.15;1.00;;;22.10;65.50;;;;;;5031541;28;20137;-75
2022/08/01 00:52:50;;;;;;;1.77;1.15;;;22.20;66.50;;;;;;5015521;28;20054;-75
2022/08/01 00:55:17;;;;;;;1.73;1.20;;;22.10;62.50;;;;;;5015169;28;20132;-74
2022/08/01 00:57:44;;;;;;;1.02;0.95;;;22.10;62.40;;;;;;5015578;28;20557;-75
2022/08/01 01:00:12;;;;;;;1.92;1.10;;;22.10;62.40;;;;;;5015430;28;20172;-75
2022/08/01 01:02:40;;;;;;;1.60;1.08;;;21.90;66.20;;;;;;5015357;28;20058;-75
2022/08/01 01:05:08;;;;;;;1.50;1.10;;;20.90;66.20;;;;;;5014696;28;20055;-75
2022/08/01 01:07:37;;;;;;;1.55;1.10;;;22.00;67.40;;;;;;5014728;28;20060;-75
2022/08/01 01:10:06;;;;;;;1.25;1.00;;;22.00;62.40;;;;;;5015117;28;20049;-74
2022/08/01 01:12:35;;;;;;;1.50;1.00;;;22.30;66.10;;;;;;5015010;28;20053;-75
2022/08/01 01:15:05;;;;;;;1.42;1.05;;;22.00;62.40;;;;;;5032657;28;20462;-73
2022/08/01 01:17:34;;;;;;;2.50;1.23;;;22.30;66.70;;;;;;5011779;28;20049;-74
2022/08/01 01:20:02;;;;;;;1.60;1.10;;;22.10;62.40;;;;;;5014978;28;20053;-74
2022/08/01 01:22:38;;;;;;;1.80;1.20;;;22.40;62.60;;;;;;5014382;28;20053;-73
2022/08/01 01:25:26;;;;;;;2.00;1.20;;;22.10;62.40;;;;;;5014638;28;20045;-74
2022/08/01 01:28:00;;;;;;;1.55;1.45;;;22.10;62.40;;;;;;4995360;28;20064;-73
2022/08/01 01:30:28;;;;;;;1.83;1.13;;;21.60;65.10;;;;;;4995007;28;20144;-74
2022/08/01 01:32:55;;;;;;;1.20;1.10;;;22.00;63.00;;;;;;4995177;28;20049;-73
2022/08/01 01:35:23;;;;;;;1.42;1.10;;;22.30;66.30;;;;;;4998496;28;20045;-73
2022/08/01 01:37:52;;;;;;;1.70;1.10;;;22.00;66.30;;;;;;5014757;28;20127;-73
2022/08/01 01:40:18;;;;;;;1.63;1.10;;;22.40;64.30;;;;;;4998259;28;20057;-73
2022/08/01 01:42:45;;;;;;;1.10;1.00;;;22.00;62.40;;;;;;5014643;28;20057;-73
2022/08/01 01:45:12;;;;;;;1.75;1.20;;;22.00;62.40;;;;;;5013872;28;20128;-74
2022/08/01 01:47:40;;;;;;;1.00;0.88;;;22.00;62.40;;;;;;5014785;28;20136;-73
2022/08/01 01:50:07;;;;;;;1.15;1.05;;;22.00;62.40;;;;;;5014553;28;20061;-74
2022/08/01 01:52:34;;;;;;;1.02;0.93;;;22.10;66.10;;;;;;5014424;28;20075;-73
2022/08/01 01:55:02;;;;;;;1.35;1.00;;;22.00;62.40;;;;;;5013973;28;20061;-73
2022/08/01 01:57:28;;;;;;;1.15;0.93;;;21.30;66.50;;;;;;4994826;28;20105;-73
2022/08/01 01:59:55;;;;;;;1.13;1.02;;;22.00;62.40;;;;;;4994748;28;20060;-75
2022/08/01 02:02:22;;;;;;;1.38;1.00;;;22.00;62.40;;;;;;4994725;28;20558;-73
2022/08/01 02:04:50;;;;;;;1.10;1.00;;;22.00;62.40;;;;;;4994628;28;20581;-73
2022/08/01 02:07:19;;;;;;;1.20;1.10;;;22.00;62.40;;;;;;5012836;28;20129;-73
2022/08/01 02:09:46;;;;;;;1.23;1.00;;;22.00;62.40;;;;;;5014438;28;20182;-73
2022/08/01 02:12:13;;;;;;;1.35;1.20;;;21.60;66.00;;;;;;5014045;28;20140;-73
2022/08/01 02:14:40;;;;;;;1.40;1.27;;;22.00;62.40;;;;;;5030461;28;20057;-74
2022/08/01 02:17:06;;;;;;;1.50;1.00;;;22.00;62.40;;;;;;5014090;28;20049;-73
2022/08/01 02:19:33;;;;;;;1.67;1.00;;;22.20;67.20;;;;;;5030816;28;20099;-73
2022/08/01 02:22:03;;;;;;;1.17;1.02;;;22.00;62.40;;;;;;5013209;28;20485;-73
2022/08/01 02:24:36;;;;;;;1.20;1.05;;;21.90;62.30;;;;;;5013154;28;20053;-73
2022/08/01 02:27:06;;;;;;;1.02;0.93;;;21.90;65.50;;;;;;5014049;28;20063;-75
2022/08/01 02:29:36;;;;;;;2.08;1.05;;;22.00;62.40;;;;;;5014479;28;20095;-75
2022/08/01 02:32:03;;;;;;;1.08;0.98;;;21.70;65.90;;;;;;5013713;28;20060;-74
2022/08/01 02:34:31;;;;;;;1.40;1.05;;;22.00;62.40;;;;;;5014407;28;20061;-75
2022/08/01 02:36:58;;;;;;;1.10;0.98;;;21.80;67.00;;;;;;5014163;28;20056;-74
2022/08/01 02:39:26;;;;;;;1.58;1.00;;;22.50;66.80;;;;;;5013845;28;20065;-74
2022/08/01 02:41:56;;;;;;;1.48;0.90;;;21.90;62.30;;;;;;5014020;28;20053;-75
2022/08/01 02:44:24;;;;;;;1.33;1.20;;;21.90;62.30;;;;;;5013984;28;20421;-74
2022/08/01 02:46:53;;;;;;;1.20;1.10;;;21.90;62.30;;;;;;5013705;28;20049;-74
2022/08/01 02:49:20;;;;;;;2.15;1.10;;;21.90;62.30;;;;;;5015705;28;20113;-75
2022/08/01 02:51:47;;;;;;;1.15;0.90;;;21.90;62.30;;;;;;5015682;28;20081;-75
2022/08/01 02:54:14;;;;;;;1.65;1.10;;;22.60;66.50;;;;;;5015904;28;20064;-75
2022/08/01 02:56:42;;;;;;;1.40;1.10;;;21.90;62.30;;;;;;5015661;28;20413;-74
2022/08/01 02:59:14;;;;;;;1.65;1.15;;;21.90;62.30;;;;;;5015709;28;20064;-74
2022/08/01 03:01:42;;;;;;;2.30;1.40;;;21.80;66.70;;;;;;5015806;28;20524;-75
2022/08/01 03:04:09;;;;;;;1.02;0.93;;;21.90;62.30;;;;;;5032793;28;20049;-74
2022/08/01 03:06:36;;;;;;;0.82;0.82;;;21.80;66.60;;;;;;5017405;28;20053;-75
2022/08/01 03:09:03;;;;;;;0.80;0.80;;;21.90;67.00;;;;;;5036297;28;20441;-75
2022/08/01 03:11:30;;;;;;;1.25;1.13;;;21.20;65.60;;;;;;5034963;28;20128;-75
2022/08/01 03:13:59;;;;;;;1.10;1.00;;;22.60;66.80;;;;;;5018563;28;20063;-75
2022/08/01 03:16:26;;;;;;;1.10;1.00;;;21.90;62.30;;;;;;5036187;28;20064;-75
2022/08/01 03:18:53;;;;;;;1.17;0.98;;;21.90;65.90;;;;;;5036528;28;20430;-75
2022/08/01 03:21:20;;;;;;;1.27;1.10;;;21.90;62.30;;;;;;5018366;28;20148;-74
2022/08/01 03:23:46;;;;;;;2.55;0.90;;;21.90;62.30;;;;;;5034368;28;20057;-75
2022/08/01 03:26:13;;;;;;;0.88;0.88;;;22.00;66.40;;;;;;5019040;28;20049;-75
2022/08/01 03:28:40;;;;;;;1.88;0.90;;;21.90;62.30;;;;;;5019838;28;20061;-75
2022/08/01 03:31:08;;;;;;;1.60;1.00;;;21.90;62.30;;;;;;5019516;28;20486;-75
2022/08/01 03:33:35;;;;;;;1.13;0.90;;;21.60;66.30;;;;;;5017886;28;20049;-75
2022/08/01 03:36:02;;;;;;;1.55;0.90;;;21.80;62.30;;;;;;5036628;28;20053;-74
2022/08/01 03:38:29;;;;;;;1.13;0.90;;;21.80;62.30;;;;;;5018598;28;20473;-75
2022/08/01 03:40:57;;;;;;;2.08;0.93;;;22.80;68.30;;;;;;5018249;28;20093;-75
2022/08/01 03:43:29;;;;;;;1.38;0.90;;;21.80;62.30;;;;;;5018607;28;20136;-74
2022/08/01 03:45:56;;;;;;;2.08;1.00;;;21.90;62.30;;;;;;5018403;28;20050;-74
2022/08/01 03:48:29;;;;;;;1.25;1.15;;;21.90;62.30;;;;;;5019216;28;20113;-75
2022/08/01 03:50:56;;;;;;;0.90;0.90;;;24.00;63.40;;;;;;5018998;28;20064;-74
2022/08/01 03:53:24;;;;;;;2.22;0.90;;;21.80;62.30;;;;;;5017622;28;20433;-76
2022/08/01 03:55:50;;;;;;;1.20;1.00;;;21.80;62.30;;;;;;5037811;28;20137;-73
2022/08/01 03:58:17;;;;;;;1.30;1.00;;;21.80;62.30;;;;;;5035410;28;20052;-75
2022/08/01 04:00:44;;;;;;;1.20;1.10;;;21.70;66.30;;;;;;5016167;28;20509;-76
2022/08/01 04:03:11;;;;;;;1.90;0.98;;;21.80;62.40;;;;;;5032933;28;20132;-75
2022/08/01 04:05:41;;;;;;;2.15;1.20;;;21.80;62.50;;;;;;5034061;28;20069;-76
2022/08/01 04:08:07;;;;;;;1.48;1.00;;;21.80;62.60;;;;;;5034151;28;20120;-76
2022/08/01 04:10:34;;;;;;;1.40;1.17;;;21.40;65.40;;;;;;5015899;28;20079;-76
2022/08/01 04:13:01;;;;;;;1.05;0.93;;;21.70;62.60;;;;;;5016139;28;20136;-75
2022/08/01 04:15:28;;;;;;;1.52;0.90;;;21.80;62.70;;;;;;5016339;28;20061;-76
2022/08/01 04:17:55;;;;;;;2.50;1.00;;;21.70;62.60;;;;;;5015350;28;20073;-76
2022/08/01 04:20:21;;;;;;;2.40;1.20;;;21.50;65.20;;;;;;5015729;28;20056;-76
2022/08/01 04:22:50;;;;;;;2.17;1.20;;;21.70;62.60;;;;;;5015685;28;20053;-76
2022/08/01 04:25:18;;;;;;;1.05;0.90;;;21.90;67.00;;;;;;5032417;28;20421;-76
2022/08/01 04:27:46;;;;;;;2.70;1.30;;;21.60;67.50;;;;;;5015577;28;20056;-76
2022/08/01 04:30:14;;;;;;;2.58;1.05;;;21.70;67.60;;;;;;5015440;28;20063;-76
2022/08/01 04:32:41;;;;;;;1.50;1.05;;;21.70;67.00;;;;;;5015377;28;20068;-76
2022/08/01 04:35:09;;;;;;;1.45;1.10;;;21.70;62.70;;;;;;5015449;28;20135;-76
2022/08/01 04:37:36;;;;;;;1.52;1.15;;;21.80;62.70;;;;;;5015856;28;20045;-76
2022/08/01 04:40:06;;;;;;;1.27;1.10;;;21.80;67.30;;;;;;5015638;28;20057;-76
2022/08/01 04:42:32;;;;;;;1.80;1.10;;;21.70;62.70;;;;;;5013435;28;20059;-76
2022/08/01 04:45:00;;;;;;;1.40;1.10;;;21.80;67.00;;;;;;5014606;28;20403;-76
2022/08/01 04:47:27;;;;;;;1.35;1.00;;;21.70;62.60;;;;;;5012668;28;20053;-76
2022/08/01 04:49:53;;;;;;;2.10;1.13;;;21.70;67.10;;;;;;5015699;28;20141;-76
2022/08/01 04:52:20;;;;;;;2.42;1.08;;;21.70;62.60;;;;;;5015611;28;20482;-75
2022/08/01 04:54:47;;;;;;;2.55;1.20;;;21.80;62.60;;;;;;5015473;28;20059;-75
2022/08/01 04:57:15;;;;;;;2.78;1.10;;;22.00;67.50;;;;;;5015716;28;20072;-75
2022/08/01 04:59:44;;;;;;;1.58;1.20;;;21.80;62.70;;;;;;5015866;28;20077;-76
2022/08/01 05:02:12;;;;;;;1.60;1.10;;;22.00;63.30;;;;;;5011618;28;20056;-76
2022/08/01 05:04:39;;;;;;;3.13;1.30;;;21.70;62.50;;;;;;5024384;28;20128;-73
2022/08/01 05:07:06;;;;;;;2.92;1.25;;;21.70;67.00;;;;;;5031788;28;20128;-73
2022/08/01 05:09:33;;;;;;;2.58;1.23;;;21.80;62.70;;;;;;5015536;28;20081;-73
2022/08/01 05:12:01;;;;;;;1.83;1.17;;;21.60;66.50;;;;;;5031726;28;20079;-73
2022/08/01 05:14:31;;;;;;;1.83;1.20;;;21.70;62.70;;;;;;5015327;28;20061;-73
2022/08/01 05:16:58;;;;;;;5.47;1.70;;;21.60;66.80;;;;;;5024174;28;20478;-73
2022/08/01 05:19:25;;;;;;;3.28;1.45;;;21.70;62.80;;;;;;5012805;28;20063;-74
2022/08/01 05:21:51;;;;;;;3.67;1.13;;;21.70;62.90;;;;;;5014810;28;20060;-73
2022/08/01 05:24:18;;;;;;;2.75;1.40;;;22.20;67.50;;;;;;5015281;28;20107;-71
2022/08/01 05:26:45;;;;;;;4.80;1.65;;;21.90;62.90;;;;;;5014802;28;20057;-74
2022/08/01 05:29:12;;;;;;;6.88;1.58;;;21.80;63.00;;;;;;5014490;28;20375;-75
2022/08/01 05:31:40;;;;;;;6.00;1.70;;;22.10;67.30;;;;;;5005960;28;20088;-74
2022/08/01 05:34:06;;;;;;;3.63;1.60;;;20.70;66.70;;;;;;5013468;28;20050;-74
2022/08/01 05:36:33;;;;;;;6.63;1.77;;;21.80;63.20;;;;;;4995250;28;20084;-72
2022/08/01 05:39:00;;;;;;;8.38;1.83;;;21.70;63.10;;;;;;4995109;28;20057;-74
2022/08/01 05:41:27;;;;;;;9.65;2.10;;;21.80;63.10;;;;;;5010995;28;20061;-74
2022/08/01 05:43:54;;;;;;;9.50;2.83;;;21.80;63.20;;;;;;5007923;28;20057;-74
2022/08/01 05:46:21;;;;;;;9.55;2.40;;;21.50;67.80;;;;;;5013367;28;20056;-74
2022/08/01 05:48:49;;;;;;;8.45;2.40;;;21.70;63.20;;;;;;5019823;28;20474;-71
2022/08/01 05:51:16;;;;;;;7.70;2.08;;;21.80;66.50;;;;;;5000968;28;20053;-72
2022/08/01 05:53:43;;;;;;;11.48;2.67;;;21.70;63.20;;;;;;5003497;28;20053;-74
2022/08/01 05:56:10;;;;;;;7.80;2.13;;;21.70;63.20;;;;;;5004428;28;20504;-74
2022/08/01 05:58:36;;;;;;;8.02;2.15;;;21.70;63.10;;;;;;5026031;28;20133;-74
2022/08/01 06:01:03;;;;;;;9.40;2.45;;;21.70;67.60;;;;;;5031841;28;20130;-73
2022/08/01 06:03:33;;;;;;;12.10;2.40;;;21.70;63.00;;;;;;5030826;28;20055;-73
2022/08/01 06:06:01;;;;;;;8.50;2.30;;;21.80;67.00;;;;;;5014605;28;20494;-74
2022/08/01 06:08:28;;;;;;;9.32;2.20;;;21.70;62.90;;;;;;5013579;28;20049;-74
2022/08/01 06:10:54;;;;;;;6.85;1.90;;;21.70;62.90;;;;;;5030019;28;20087;-74
2022/08/01 06:13:21;;;;;;;10.18;2.20;;;21.70;62.80;;;;;;5031962;28;20132;-74
2022/08/01 06:15:48;;;;;;;7.20;2.20;;;21.70;62.80;;;;;;5014098;28;20133;-74
2022/08/01 06:18:15;;;;;;;5.22;1.75;;;21.70;62.70;;;;;;5014393;28;20049;-74
2022/08/01 06:20:42;;;;;;;6.82;1.90;;;21.00;66.50;;;;;;5013791;28;20069;-74
2022/08/01 06:23:10;;;;;;;6.28;2.10;;;21.70;62.80;;;;;;5014027;28;20128;-74
2022/08/01 06:25:37;;;;;;;6.63;2.00;;;21.70;62.70;;;;;;5030388;28;20061;-74
2022/08/01 06:28:04;;;;;;;8.07;2.10;;;21.70;62.60;;;;;;5030331;28;20057;-74
2022/08/01 06:30:31;;;;;;;5.65;1.80;;;21.00;65.10;;;;;;5013788;28;20085;-74
2022/08/01 06:32:58;;;;;;;7.25;1.90;;;21.70;62.60;;;;;;5011193;28;20508;-75
2022/08/01 06:35:25;;;;;;;8.13;2.63;;;21.70;62.60;;;;;;5005733;28;20049;-74
2022/08/01 06:37:51;;;;;;;4.93;1.80;;;21.70;62.50;;;;;;5014011;28;20053;-75
2022/08/01 06:40:19;;;;;;;6.28;2.15;;;21.90;67.10;;;;;;5031176;28;20387;-75
2022/08/01 06:42:46;;;;;;;6.45;2.22;;;22.80;66.80;;;;;;5014607;28;20129;-75
2022/08/01 06:45:13;;;;;;;8.40;2.20;;;21.70;62.40;;;;;;5008970;28;20506;-73
2022/08/01 06:47:41;;;;;;;9.13;2.20;;;21.70;62.40;;;;;;4997966;28;20509;-75
2022/08/01 06:50:09;;;;;;;5.28;1.77;;;21.70;62.40;;;;;;5008205;28;20050;-74
2022/08/01 06:52:36;;;;;;;5.97;2.10;;;21.70;62.40;;;;;;5019106;28;20050;-73
2022/08/01 06:55:03;;;;;;;7.15;2.03;;;21.70;62.40;;;;;;5017876;28;20140;-73
2022/08/01 06:57:31;;;;;;;6.30;2.00;;;21.70;62.40;;;;;;5017792;28;20050;-74
2022/08/01 06:59:58;;;;;;;5.20;1.58;;;21.80;62.40;;;;;;5010187;28;20128;-70
2022/08/01 07:02:24;;;;;;;5.85;2.40;;;22.00;62.60;;;;;;4998114;28;20133;-74
2022/08/01 07:04:51;;;;;;;5.00;1.75;;;21.70;66.50;;;;;;4997970;28;20128;-75
2022/08/01 07:07:18;;;;;;;7.15;2.17;;;21.70;62.40;;;;;;5014039;28;20054;-73
2022/08/01 07:09:44;;;;;;;5.50;1.80;;;21.80;66.10;;;;;;5015534;28;20054;-73
2022/08/01 07:12:11;;;;;;;7.40;2.00;;;22.90;67.30;;;;;;5004965;28;20133;-73
2022/08/01 07:14:39;;;;;;;8.27;2.33;;;22.00;62.70;;;;;;5009593;28;20096;-73
2022/08/01 07:17:06;;;;;;;8.13;2.10;;;21.70;62.50;;;;;;5017613;28;20052;-73
2022/08/01 07:19:33;;;;;;;7.65;2.15;;;21.90;67.10;;;;;;5035092;28;20516;-73
2022/08/01 07:22:00;;;;;;;8.32;2.00;;;21.80;62.50;;;;;;5017021;28;20080;-73
2022/08/01 07:24:28;;;;;;;10.38;2.60;;;21.70;62.40;;;;;;5016877;28;20144;-73
2022/08/01 07:26:57;;;;;;;6.38;2.50;;;21.80;62.40;;;;;;5025570;28;20053;-73
2022/08/01 07:29:24;;;;;;;9.85;2.42;;;22.70;66.90;;;;;;5017395;28;20068;-73
2022/08/01 07:31:52;;;;;;;10.15;2.35;;;21.80;67.30;;;;;;5012828;28;20148;-73
2022/08/01 07:34:19;;;;;;;10.40;2.30;;;21.80;62.40;;;;;;5013650;28;20053;-74
2022/08/01 07:36:46;;;;;;;12.70;2.45;;;22.60;66.80;;;;;;5013539;28;20137;-73
2022/08/01 07:39:12;;;;;;;10.10;2.70;;;21.70;62.50;;;;;;5013776;28;20133;-73
2022/08/01 07:41:39;;;;;;;7.82;2.20;;;21.40;66.70;;;;;;5014546;28;20063;-72
2022/08/01 07:44:06;;;;;;;9.82;2.50;;;21.70;62.70;;;;;;5013109;28;20064;-73
2022/08/01 07:46:32;;;;;;;8.23;2.15;;;22.50;68.50;;;;;;5013612;28;20057;-72
2022/08/01 07:49:00;;;;;;;8.98;2.78;;;21.60;62.70;;;;;;5013735;28;20128;-72
2022/08/01 07:51:27;;;;;;;10.85;2.22;;;21.70;62.60;;;;;;5014006;28;20384;-72
2022/08/01 07:53:54;;;;;;;8.25;2.30;;;20.70;65.30;;;;;;5014587;28;20123;-73
2022/08/01 07:56:23;;;;;;;8.15;2.60;;;21.70;66.90;;;;;;5016738;28;20505;-72
2022/08/01 07:58:50;;;;;;;8.77;2.53;;;21.70;62.60;;;;;;5016326;28;20410;-72
2022/08/01 08:01:17;;;;;;;10.23;2.28;;;21.70;62.50;;;;;;5016422;28;20115;-72
2022/08/01 08:03:44;;;;;;;8.20;2.40;;;22.00;66.20;;;;;;5016493;28;20490;-72
2022/08/01 08:06:12;;;;;;;9.93;2.42;;;21.70;67.60;;;;;;5016626;28;20060;-73
2022/08/01 08:08:39;;;;;;;9.32;2.20;;;21.80;67.60;;;;;;5033789;28;20045;-73
2022/08/01 08:11:06;;;;;;;8.98;2.50;;;21.70;62.20;;;;;;5015798;28;20045;-72
2022/08/01 08:13:33;;;;;;;9.02;2.42;;;20.80;66.50;;;;;;5016410;28;20418;-72
2022/08/01 08:15:59;;;;;;;9.15;2.63;;;21.70;62.30;;;;;;5013184;28;20133;-70
2022/08/01 08:18:26;;;;;;;11.57;2.45;;;21.70;62.30;;;;;;5005144;28;20067;-72
2022/08/01 08:20:53;;;;;;;8.93;2.42;;;21.60;66.50;;;;;;5013657;28;20514;-73
2022/08/01 08:26:05;;;;;;;11.18;2.20;;;21.80;62.20;;;;;;5004393;28;20080;-73
2022/08/01 08:28:32;;;;;;;7.57;2.22;;;21.80;62.10;;;;;;5015424;28;20494;-73
2022/08/01 08:30:59;;;;;;;7.68;2.45;;;21.80;62.00;;;;;;5029684;28;20431;-72
2022/08/01 08:33:26;;;;;;;8.98;2.22;;;20.70;66.80;;;;;;4996523;28;20063;-73
2022/08/01 08:35:54;;;;;;;9.35;2.40;;;21.80;62.10;;;;;;4996397;28;20130;-72
2022/08/01 08:38:22;;;;;;;9.48;2.22;;;21.90;62.10;;;;;;4997319;28;20450;-75
2022/08/01 08:40:49;;;;;;;9.80;2.20;;;21.90;62.00;;;;;;5032905;28;20517;-72
2022/08/01 08:43:15;;;;;;;9.93;2.40;;;21.90;61.90;;;;;;5032381;28;20045;-72
2022/08/01 08:45:42;;;;;;;9.85;2.30;;;21.90;61.90;;;;;;5014462;28;20626;-72
2022/08/01 08:48:09;;;;;;;6.45;1.80;;;22.00;62.40;;;;;;5014416;28;20124;-72
2022/08/01 08:50:35;;;;;;;7.82;1.88;;;21.70;64.80;;;;;;5013800;28;20128;-71
2022/08/01 08:53:02;;;;;;;8.60;2.85;;;22.20;67.20;;;;;;5014491;28;20064;-72
2022/08/01 08:55:31;;;;;;;7.93;2.60;;;22.10;61.70;;;;;;5014000;28;20057;-73
2022/08/01 08:58:00;;;;;;;7.50;2.20;;;22.20;61.60;;;;;;5015004;28;20136;-73
2022/08/01 09:00:26;;;;;;;10.85;2.38;;;22.40;64.20;;;;;;5015281;28;20065;-74
2022/08/01 09:02:55;;;;;;;6.75;2.50;;;22.20;61.40;;;;;;5014933;28;20132;-74
2022/08/01 09:05:25;;;;;;;7.47;2.30;;;22.30;61.30;;;;;;5015194;28;20061;-73
2022/08/01 09:07:52;;;;;;;10.52;2.92;;;22.30;61.80;;;;;;5031935;28;20132;-73
2022/08/01 09:10:18;;;;;;;9.73;2.80;;;22.30;66.00;;;;;;5015115;28;20053;-73
2022/08/01 09:13:05;;;;;;;5.30;1.90;;;22.70;61.20;;;;;;5015012;28;20104;-73
2022/08/01 09:15:42;;;;;;;7.78;2.20;;;22.40;61.00;;;;;;5015244;28;20524;-74
2022/08/01 09:18:09;;;;;;;8.38;2.33;;;22.70;64.90;;;;;;5032966;28;20041;-74
2022/08/01 09:20:36;;;;;;;11.55;2.40;;;22.50;63.50;;;;;;5014931;28;20053;-74
2022/08/01 09:23:03;;;;;;;6.70;2.08;;;22.70;60.80;;;;;;5032363;28;20049;-74
2022/08/01 09:25:33;;;;;;;6.40;2.25;;;22.60;60.60;;;;;;5014591;28;20060;-73
2022/08/01 09:28:05;;;;;;;8.10;2.35;;;22.60;60.50;;;;;;5032417;28;20060;-74
2022/08/01 09:30:37;;;;;;;8.90;2.58;;;22.60;63.20;;;;;;5014727;28;20398;-74
2022/08/01 09:33:04;;;;;;;7.07;2.20;;;22.60;60.40;;;;;;5032437;28;20509;-74
2022/08/01 09:35:34;;;;;;;5.32;2.05;;;23.90;66.00;;;;;;5032537;28;20049;-74
2022/08/01 09:38:14;;;;;;;4.20;2.15;;;22.80;60.30;;;;;;5014437;28;20425;-74
2022/08/01 09:40:48;;;;;;;7.85;2.25;;;22.80;60.30;;;;;;5014371;28;20068;-73
2022/08/01 09:43:16;;;;;;;8.40;2.15;;;22.90;60.20;;;;;;5014704;28;20057;-74
2022/08/01 09:45:43;;;;;;;3.90;1.85;;;22.90;60.20;;;;;;5014855;28;20053;-74
2022/08/01 09:48:11;;;;;;;4.80;2.03;;;22.90;64.50;;;;;;5014613;28;20049;-74
2022/08/01 09:50:42;;;;;;;8.05;1.92;;;22.80;63.10;;;;;;5013377;28;20049;-74
2022/08/01 09:53:08;;;;;;;4.90;2.13;;;23.00;60.10;;;;;;5014116;28;20100;-74
2022/08/01 09:55:35;;;;;;;8.43;2.28;;;23.00;60.10;;;;;;5014328;28;20080;-72
2022/08/01 09:58:04;;;;;;;4.75;1.83;;;23.30;64.80;;;;;;5014770;28;20542;-73
2022/08/01 10:00:32;;;;;;;6.18;2.00;;;23.30;63.30;;;;;;5014311;28;20103;-73
2022/08/01 10:02:59;;;;;;;7.63;2.03;;;23.00;60.00;;;;;;5014311;28;20060;-73
2022/08/01 10:05:32;;;;;;;7.10;2.03;;;23.00;59.90;;;;;;5014476;28;20563;-73
2022/08/01 10:07:59;;;;;;;8.35;2.17;;;22.90;59.60;;;;;;5009418;28;20054;-73
2022/08/01 10:10:26;;;;;;;9.85;2.00;;;22.90;61.90;;;;;;5011240;28;20063;-73
2022/08/01 10:12:53;;;;;;;7.15;2.20;;;23.00;59.30;;;;;;5011258;28;20056;-74
2022/08/01 10:15:20;;;;;;;8.20;2.20;;;23.00;59.30;;;;;;5014121;28;20054;-73
2022/08/01 10:17:53;;;;;;;9.65;2.63;;;23.00;59.20;;;;;;5014402;28;20049;-74
2022/08/01 10:20:20;;;;;;;6.50;1.70;;;23.00;59.10;;;;;;5009147;28;20080;-73
2022/08/01 10:22:47;;;;;;;4.57;1.90;;;23.40;63.80;;;;;;5020079;28;20057;-73
2022/08/01 10:25:16;;;;;;;5.43;1.63;;;23.80;63.90;;;;;;5006048;28;20136;-73
2022/08/01 10:27:45;;;;;;;7.10;1.88;;;22.90;62.00;;;;;;5007823;28;20103;-74
2022/08/01 10:30:12;;;;;;;6.53;1.88;;;23.00;58.80;;;;;;5013982;28;20054;-75
2022/08/01 10:32:39;;;;;;;3.83;1.40;;;23.10;63.50;;;;;;5013906;28;20053;-74
2022/08/01 10:35:08;;;;;;;4.70;1.58;;;23.00;58.80;;;;;;5013864;28;20141;-73
2022/08/01 10:37:35;;;;;;;8.55;1.90;;;23.00;58.80;;;;;;5013812;28;20413;-74
2022/08/01 10:40:02;;;;;;;8.27;1.70;;;23.00;58.90;;;;;;5031331;28;20659;-74
2022/08/01 10:42:28;;;;;;;5.13;1.50;;;23.00;58.80;;;;;;5013830;28;20057;-74
2022/08/01 10:44:56;;;;;;;4.35;1.77;;;23.10;62.90;;;;;;5013751;28;20077;-74
2022/08/01 10:47:39;;;;;;;4.07;1.50;;;23.10;58.90;;;;;;5013927;28;20050;-73
2022/08/01 10:50:12;;;;;;;4.20;1.83;;;23.10;58.90;;;;;;5013618;28;20465;-74
2022/08/01 10:52:39;;;;;;;3.88;1.63;;;23.10;58.80;;;;;;5010837;28;20061;-74
2022/08/01 10:55:09;;;;;;;7.68;1.85;;;23.10;58.80;;;;;;5022076;28;20045;-74
2022/08/01 10:57:43;;;;;;;3.78;1.77;;;23.10;58.70;;;;;;5010265;28;20520;-74
2022/08/01 11:00:11;;;;;;;4.00;1.75;;;23.10;58.70;;;;;;5010278;28;20391;-74
2022/08/01 11:02:40;;;;;;;3.95;1.77;;;23.10;58.70;;;;;;5010285;28;20066;-74
2022/08/01 11:05:12;;;;;;;7.07;1.80;;;23.10;63.50;;;;;;5012544;28;20054;-74
2022/08/01 11:07:45;;;;;;;3.55;1.50;;;23.30;63.20;;;;;;5008696;28;20054;-73
2022/08/01 11:10:20;;;;;;;4.57;1.70;;;23.10;62.70;;;;;;5013061;28;20132;-75
2022/08/01 11:12:47;;;;;;;3.28;1.42;;;23.20;58.70;;;;;;5012680;28;20057;-75
2022/08/01 11:15:24;;;;;;;6.15;1.85;;;23.20;63.00;;;;;;5011927;28;20050;-75
2022/08/01 11:17:51;;;;;;;4.38;1.50;;;23.20;58.60;;;;;;5003367;28;20054;-73
2022/08/01 11:20:20;;;;;;;2.58;1.50;;;23.60;62.70;;;;;;5004498;28;20061;-75
2022/08/01 11:23:24;;;;;;;3.83;1.67;;;23.20;58.50;;;;;;5016336;28;20073;-74
2022/08/01 11:26:21;;;;;;;4.82;1.67;;;23.50;63.10;;;;;;4994380;28;20447;-72
2022/08/01 11:29:13;;;;;;;4.78;1.73;;;23.30;58.70;;;;;;5016946;28;20465;-74
2022/08/01 11:31:40;;;;;;;3.35;1.50;;;23.20;59.10;;;;;;5017284;28;20501;-75
2022/08/01 11:34:07;;;;;;;5.72;1.60;;;23.20;58.60;;;;;;5017228;28;20081;-74
2022/08/01 11:36:35;;;;;;;5.03;1.55;;;23.20;58.50;;;;;;5015713;28;20133;-74
2022/08/01 11:39:18;;;;;;;3.17;1.48;;;23.20;58.50;;;;;;5008907;28;20125;-74
2022/08/01 11:41:46;;;;;;;3.90;1.75;;;24.40;63.30;;;;;;5013997;28;20524;-75
2022/08/01 11:44:14;;;;;;;2.85;1.50;;;23.20;58.60;;;;;;5033577;28;20053;-74
2022/08/01 11:46:48;;;;;;;3.17;1.40;;;23.70;63.50;;;;;;5017018;28;20490;-75
2022/08/01 11:49:29;;;;;;;2.70;1.63;;;23.20;58.30;;;;;;5011650;28;20049;-74
2022/08/01 11:52:01;;;;;;;3.67;1.60;;;23.30;58.70;;;;;;5012272;28;20049;-74
2022/08/01 11:54:29;;;;;;;4.07;1.38;;;23.20;58.60;;;;;;5017413;28;20057;-73
2022/08/01 11:56:57;;;;;;;3.22;1.48;;;23.30;63.10;;;;;;5017005;28;20136;-72
2022/08/01 11:59:23;;;;;;;4.38;1.60;;;22.50;62.90;;;;;;5016799;28;20480;-73
2022/08/01 12:01:50;;;;;;;2.85;1.50;;;23.20;58.80;;;;;;5033842;28;20148;-74
2022/08/01 12:04:17;;;;;;;3.05;1.27;;;23.30;58.80;;;;;;5016962;28;20056;-72
2022/08/01 12:06:44;;;;;;;3.63;1.45;;;23.20;58.70;;;;;;5012231;28;20053;-75
2022/08/01 12:09:20;;;;;;;4.55;1.65;;;23.20;58.70;;;;;;4997986;28;20054;-75
2022/08/01 12:11:47;;;;;;;3.08;1.45;;;23.30;58.60;;;;;;5015730;28;20132;-74
2022/08/01 12:14:18;;;;;;;3.40;1.40;;;23.30;58.60;;;;;;5033642;28;20128;-74
2022/08/01 12:16:50;;;;;;;4.75;1.60;;;22.80;62.30;;;;;;5013874;28;20140;-73
2022/08/01 12:19:21;;;;;;;3.58;1.50;;;23.30;58.60;;;;;;5032216;28;20053;-73
2022/08/01 12:22:09;;;;;;;9.40;2.35;;;23.50;62.40;;;;;;5013823;28;20057;-73
2022/08/01 12:24:38;;;;;;;4.85;1.63;;;22.50;62.90;;;;;;5013665;28;20057;-75
2022/08/01 12:27:05;;;;;;;4.43;1.70;;;23.40;64.00;;;;;;5014108;28;20124;-73
2022/08/01 12:29:36;;;;;;;4.80;1.50;;;23.30;58.60;;;;;;5014019;28;20045;-75
2022/08/01 12:32:03;;;;;;;3.53;1.50;;;23.60;63.40;;;;;;5015984;28;20053;-75
2022/08/01 12:34:29;;;;;;;3.45;1.40;;;23.30;58.60;;;;;;5016064;28;20057;-73
2022/08/01 12:36:57;;;;;;;7.40;1.77;;;23.30;63.00;;;;;;5033448;28;20115;-73
2022/08/01 12:39:30;;;;;;;5.57;1.80;;;23.30;62.50;;;;;;5014723;28;20505;-72
2022/08/01 12:41:58;;;;;;;2.75;1.10;;;23.30;58.40;;;;;;5015548;28;20406;-73
2022/08/01 12:44:25;;;;;;;5.60;1.58;;;23.30;58.40;;;;;;5033346;28;20045;-72
2022/08/01 12:46:52;;;;;;;3.67;1.42;;;23.30;58.40;;;;;;5015752;28;20080;-73
2022/08/01 12:49:19;;;;;;;3.42;1.40;;;23.20;62.40;;;;;;5033251;28;20049;-72
2022/08/01 12:51:45;;;;;;;5.25;1.60;;;23.30;62.80;;;;;;5015513;28;20483;-72
2022/08/01 12:54:12;;;;;;;6.70;1.50;;;23.30;58.30;;;;;;5033344;28;20041;-73